createdAt,value
2019-03-26T00:01:26.181Z,86.20
2019-03-26T00:04:06.109Z,86.50
2019-03-26T00:06:37.840Z,86.90
2019-03-26T00:09:13.945Z,87.10
2019-03-26T00:11:49.452Z,87.40
2019-03-26T00:14:24.889Z,87.10
2019-03-26T00:16:59.781Z,86.60
2019-03-26T00:19:35.592Z,85.60
2019-03-26T00:22:11.642Z,84.20
2019-03-26T00:24:46.759Z,82.70
2019-03-26T00:27:21.761Z,82.00
2019-03-26T00:29:57.365Z,81.20
2019-03-26T00:32:32.475Z,80.10
2019-03-26T00:35:07.486Z,79.60
2019-03-26T00:37:42.975Z,78.90
2019-03-26T00:40:18.219Z,78.30
2019-03-26T00:42:53.697Z,78.30
2019-03-26T00:45:28.921Z,78.40
2019-03-26T00:48:04.564Z,78.50
2019-03-26T00:50:39.644Z,78.90
2019-03-26T00:53:14.701Z,79.40
2019-03-26T00:55:50.360Z,79.50
2019-03-26T00:58:25.438Z,80.00
2019-03-26T01:01:01.542Z,80.30
2019-03-26T01:03:36.614Z,81.40
2019-03-26T01:06:11.873Z,80.60
2019-03-26T01:08:46.712Z,80.80
2019-03-26T01:11:21.806Z,81.00
2019-03-26T01:13:57.073Z,80.90
2019-03-26T01:16:32.402Z,81.00
2019-03-26T01:19:07.345Z,80.80
2019-03-26T01:21:42.687Z,80.40
2019-03-26T01:24:18.305Z,80.20
2019-03-26T01:26:53.342Z,79.90
2019-03-26T01:29:28.898Z,79.80
2019-03-26T01:32:04.146Z,79.40
2019-03-26T01:34:45.807Z,78.90
2019-03-26T01:37:16.267Z,78.40
2019-03-26T01:39:51.578Z,78.10
2019-03-26T01:42:27.014Z,77.40
2019-03-26T01:45:02.370Z,78.00
2019-03-26T01:47:37.869Z,76.60
2019-03-26T01:50:13.303Z,76.30
2019-03-26T01:52:49.067Z,76.00
2019-03-26T01:55:24.390Z,75.70
2019-03-26T01:57:59.190Z,75.60
2019-03-26T02:00:34.941Z,75.60
2019-03-26T02:03:11.944Z,75.30
2019-03-26T02:05:47.167Z,75.10
2019-03-26T02:08:23.100Z,74.70
2019-03-26T02:10:58.355Z,74.20
2019-03-26T02:13:33.379Z,74.00
2019-03-26T02:16:08.339Z,73.90
2019-03-26T02:18:43.924Z,73.70
2019-03-26T02:21:19.655Z,73.50
2019-03-26T02:23:54.571Z,73.10
2019-03-26T02:26:29.907Z,72.90
2019-03-26T02:29:05.365Z,72.50
2019-03-26T02:31:40.007Z,72.50
2019-03-26T02:34:15.857Z,72.20
2019-03-26T02:36:50.429Z,72.20
2019-03-26T02:39:25.681Z,72.00
2019-03-26T02:42:01.910Z,71.80
2019-03-26T02:44:36.907Z,71.40
2019-03-26T02:47:12.158Z,71.40
2019-03-26T02:49:47.489Z,71.50
2019-03-26T02:52:22.542Z,71.10
2019-03-26T02:54:57.727Z,70.70
2019-03-26T02:57:33.465Z,70.80
2019-03-26T03:00:07.942Z,70.20
2019-03-26T03:02:42.730Z,70.30
2019-03-26T03:05:33.784Z,69.30
2019-03-26T03:07:54.140Z,68.80
2019-03-26T03:10:29.704Z,68.90
2019-03-26T03:13:05.285Z,69.30
2019-03-26T03:15:40.165Z,69.70
2019-03-26T03:18:16.328Z,70.00
2019-03-26T03:20:51.663Z,69.60
2019-03-26T03:23:26.765Z,66.80
2019-03-26T03:26:01.410Z,66.60
2019-03-26T03:28:36.150Z,67.40
2019-03-26T03:31:11.398Z,66.60
2019-03-26T03:33:46.941Z,66.50
2019-03-26T03:36:22.363Z,66.00
2019-03-26T03:38:57.511Z,65.30
2019-03-26T03:41:33.046Z,65.30
2019-03-26T03:44:08.772Z,65.10
2019-03-26T03:46:44.182Z,64.90
2019-03-26T03:49:19.202Z,64.60
2019-03-26T03:51:54.060Z,64.30
2019-03-26T03:54:30.455Z,64.30
2019-03-26T03:57:05.401Z,64.00
2019-03-26T03:59:41.307Z,64.10
2019-03-26T04:02:16.776Z,64.10
2019-03-26T04:04:51.844Z,63.00
2019-03-26T04:07:27.018Z,63.00
2019-03-26T04:10:04.942Z,63.20
2019-03-26T04:12:40.169Z,63.50
2019-03-26T04:15:15.626Z,63.20
2019-03-26T04:17:51.023Z,62.50
2019-03-26T04:20:26.699Z,61.70
2019-03-26T04:23:02.106Z,61.40
2019-03-26T04:25:37.155Z,61.90
2019-03-26T04:28:12.355Z,62.60
2019-03-26T04:30:47.555Z,62.40
2019-03-26T04:33:22.403Z,62.30
2019-03-26T04:35:57.676Z,62.90
2019-03-26T04:38:32.573Z,63.30
2019-03-26T04:41:07.664Z,63.60
2019-03-26T04:43:43.168Z,64.50
2019-03-26T04:46:18.214Z,63.50
2019-03-26T04:48:53.611Z,63.30
2019-03-26T04:51:28.991Z,62.70
2019-03-26T04:54:04.075Z,62.30
2019-03-26T04:56:39.647Z,61.90
2019-03-26T04:59:14.597Z,61.30
2019-03-26T05:01:49.899Z,60.70
2019-03-26T05:04:25.287Z,61.00
2019-03-26T05:07:00.350Z,60.50
2019-03-26T05:09:35.594Z,59.60
2019-03-26T05:12:10.980Z,59.40
2019-03-26T05:14:46.040Z,59.30
2019-03-26T05:17:21.973Z,58.70
2019-03-26T05:19:57.012Z,58.70
2019-03-26T05:22:32.324Z,58.60
2019-03-26T05:25:07.826Z,58.50
2019-03-26T05:27:45.729Z,58.30
2019-03-26T05:30:19.395Z,59.60
2019-03-26T05:32:54.824Z,60.00
2019-03-26T05:35:30.098Z,59.60
2019-03-26T05:38:05.250Z,59.30
2019-03-26T05:40:40.785Z,58.90
2019-03-26T05:43:15.843Z,58.70
2019-03-26T05:45:51.073Z,58.60
2019-03-26T05:48:26.296Z,58.50
2019-03-26T05:51:01.184Z,58.30
2019-03-26T05:53:36.219Z,58.60
2019-03-26T05:56:11.515Z,58.50
2019-03-26T05:58:46.199Z,58.30
2019-03-26T06:01:39.358Z,57.90
2019-03-26T06:04:14.959Z,57.70
2019-03-26T06:06:50.210Z,57.70
2019-03-26T06:09:25.619Z,57.50
2019-03-26T06:12:01.154Z,57.40
2019-03-26T06:14:36.067Z,57.50
2019-03-26T06:17:10.956Z,57.40
2019-03-26T06:19:46.760Z,57.20
2019-03-26T06:22:21.375Z,57.00
2019-03-26T06:24:56.749Z,56.80
2019-03-26T06:27:32.035Z,57.20
2019-03-26T06:30:07.619Z,57.00
2019-03-26T06:32:43.242Z,57.30
2019-03-26T06:35:18.396Z,57.40
2019-03-26T06:37:53.743Z,57.60
2019-03-26T06:40:28.599Z,57.90
2019-03-26T06:43:04.087Z,58.30
2019-03-26T06:45:39.366Z,57.80
2019-03-26T06:48:14.418Z,58.60
2019-03-26T06:50:50.451Z,59.00
2019-03-26T06:53:25.614Z,59.50
2019-03-26T06:56:01.141Z,59.70
2019-03-26T06:58:35.778Z,60.00
2019-03-26T07:01:11.559Z,60.30
2019-03-26T07:03:47.016Z,60.80
2019-03-26T07:06:21.544Z,60.90
2019-03-26T07:08:57.400Z,61.30
2019-03-26T07:11:32.110Z,61.80
2019-03-26T07:14:06.972Z,61.30
2019-03-26T07:16:42.355Z,61.70
2019-03-26T07:19:18.234Z,62.10
2019-03-26T07:21:53.643Z,61.90
2019-03-26T07:24:28.896Z,61.90
2019-03-26T07:27:03.888Z,61.80
2019-03-26T07:29:40.640Z,61.80
2019-03-26T07:32:16.115Z,61.70
2019-03-26T07:34:51.428Z,61.80
2019-03-26T07:37:26.503Z,61.90
2019-03-26T07:40:01.878Z,61.90
2019-03-26T07:42:36.736Z,61.70
2019-03-26T07:45:12.428Z,61.40
2019-03-26T07:47:47.570Z,61.10
2019-03-26T07:50:22.921Z,61.20
2019-03-26T07:52:57.754Z,61.20
2019-03-26T07:55:32.746Z,61.40
2019-03-26T07:58:07.996Z,61.20
2019-03-26T08:00:43.612Z,61.30
2019-03-26T08:03:21.076Z,61.20
2019-03-26T08:05:55.439Z,61.00
2019-03-26T08:08:31.197Z,61.00
2019-03-26T08:11:06.264Z,60.90
2019-03-26T08:13:41.717Z,60.60
2019-03-26T08:16:16.964Z,60.80
2019-03-26T08:18:52.300Z,60.60
2019-03-26T08:21:27.016Z,61.00
2019-03-26T08:24:02.713Z,60.80
2019-03-26T08:26:38.164Z,60.60
2019-03-26T08:29:15.692Z,60.60
2019-03-26T08:31:51.254Z,60.40
2019-03-26T08:34:27.075Z,60.60
2019-03-26T08:37:04.970Z,60.60
2019-03-26T08:39:39.829Z,60.70
2019-03-26T08:42:15.323Z,60.60
2019-03-26T08:44:50.499Z,60.70
2019-03-26T08:47:25.955Z,60.60
2019-03-26T08:50:03.537Z,60.50
2019-03-26T08:52:38.724Z,60.40
2019-03-26T08:55:14.200Z,60.60
2019-03-26T08:57:49.307Z,60.70
2019-03-26T09:00:24.380Z,61.00
2019-03-26T09:03:00.299Z,60.40
2019-03-26T09:05:40.987Z,59.10
2019-03-26T09:08:25.375Z,58.90
2019-03-26T09:10:52.952Z,58.70
2019-03-26T09:13:27.971Z,58.30
2019-03-26T09:16:04.002Z,58.10
2019-03-26T09:18:39.144Z,57.90
2019-03-26T09:21:13.845Z,57.80
2019-03-26T09:23:49.065Z,57.70
2019-03-26T09:26:24.392Z,57.50
2019-03-26T09:28:59.679Z,57.40
2019-03-26T09:31:35.018Z,57.40
2019-03-26T09:34:10.591Z,57.00
2019-03-26T09:36:46.272Z,57.10
2019-03-26T09:39:21.236Z,57.20
2019-03-26T09:41:56.419Z,57.00
2019-03-26T09:44:31.692Z,57.10
2019-03-26T09:47:16.090Z,57.00
2019-03-26T09:49:43.160Z,56.90
2019-03-26T09:52:19.506Z,56.70
2019-03-26T09:54:54.909Z,56.70
2019-03-26T09:57:34.541Z,56.80
2019-03-26T10:00:10.502Z,56.80
2019-03-26T10:02:45.576Z,57.00
2019-03-26T10:05:20.475Z,57.10
2019-03-26T10:07:55.463Z,57.10
2019-03-26T10:10:30.785Z,57.30
2019-03-26T10:13:06.032Z,57.40
2019-03-26T10:15:42.234Z,57.50
2019-03-26T10:18:16.960Z,57.40
2019-03-26T10:20:52.406Z,57.60
2019-03-26T10:23:27.627Z,57.50
2019-03-26T10:26:03.327Z,57.60
2019-03-26T10:28:38.311Z,57.80
2019-03-26T10:31:15.407Z,57.90
2019-03-26T10:33:50.893Z,58.00
2019-03-26T10:36:26.408Z,58.10
2019-03-26T10:41:38.325Z,58.20
2019-03-26T10:44:13.482Z,58.30
2019-03-26T10:46:48.796Z,58.60
2019-03-26T10:49:24.096Z,58.70
2019-03-26T10:51:59.465Z,59.10
2019-03-26T10:54:34.500Z,59.50
2019-03-26T10:57:09.551Z,60.00
2019-03-26T10:59:44.754Z,60.50
2019-03-26T11:02:20.136Z,61.00
2019-03-26T11:04:55.042Z,61.40
2019-03-26T11:07:30.320Z,61.80
2019-03-26T11:10:05.756Z,62.10
2019-03-26T11:12:41.583Z,62.40
2019-03-26T11:15:16.656Z,62.70
2019-03-26T11:17:51.968Z,62.80
2019-03-26T11:20:28.428Z,63.00
2019-03-26T11:23:04.212Z,63.10
2019-03-26T11:25:39.551Z,63.10
2019-03-26T11:28:14.262Z,63.10
2019-03-26T11:30:49.894Z,63.40
2019-03-26T11:33:24.680Z,63.70
2019-03-26T11:35:59.925Z,63.80
2019-03-26T11:38:35.312Z,63.70
2019-03-26T11:41:10.347Z,63.70
2019-03-26T11:43:45.650Z,63.60
2019-03-26T11:46:21.409Z,63.60
2019-03-26T11:48:56.378Z,63.60
2019-03-26T11:51:32.601Z,63.70
2019-03-26T11:54:08.253Z,63.80
2019-03-26T11:56:43.253Z,63.90
2019-03-26T11:59:18.202Z,63.90
2019-03-26T12:01:53.661Z,64.00
2019-03-26T12:04:28.840Z,64.20
2019-03-26T12:07:04.886Z,64.40
2019-03-26T12:09:46.048Z,64.60
2019-03-26T12:12:16.948Z,64.70
2019-03-26T12:14:52.231Z,64.80
2019-03-26T12:17:27.713Z,65.10
2019-03-26T12:20:02.890Z,65.10
2019-03-26T12:22:38.118Z,65.40
2019-03-26T12:25:13.083Z,65.70
2019-03-26T12:27:48.359Z,65.80
2019-03-26T12:30:38.183Z,65.80
2019-03-26T12:33:13.156Z,66.10
2019-03-26T12:35:48.506Z,66.40
2019-03-26T12:38:27.120Z,66.50
2019-03-26T12:41:02.110Z,66.70
2019-03-26T12:43:37.180Z,67.00
2019-03-26T12:46:13.282Z,67.00
2019-03-26T12:48:48.256Z,67.30
2019-03-26T12:51:23.081Z,67.40
2019-03-26T12:53:58.357Z,67.50
2019-03-26T12:56:33.588Z,67.60
2019-03-26T12:59:09.020Z,67.70
2019-03-26T13:01:44.758Z,67.90
2019-03-26T13:04:20.218Z,68.10
2019-03-26T13:06:55.374Z,68.30
2019-03-26T13:09:30.623Z,68.50
2019-03-26T13:12:06.493Z,68.50
2019-03-26T13:14:41.963Z,68.90
2019-03-26T13:17:17.603Z,68.90
2019-03-26T13:19:53.227Z,69.20
2019-03-26T13:22:28.285Z,69.30
2019-03-26T13:25:03.898Z,69.60
2019-03-26T13:27:40.005Z,69.60
2019-03-26T13:30:16.349Z,69.70
2019-03-26T13:32:51.504Z,69.80
2019-03-26T13:35:26.594Z,70.00
2019-03-26T13:38:02.471Z,70.00
2019-03-26T13:40:37.994Z,70.10
2019-03-26T13:43:12.962Z,70.30
2019-03-26T13:45:48.878Z,70.50
2019-03-26T13:48:23.995Z,70.70
2019-03-26T13:50:59.206Z,70.80
2019-03-26T13:53:34.431Z,70.80
2019-03-26T13:56:09.602Z,70.80
2019-03-26T13:58:44.225Z,71.00
2019-03-26T14:01:20.805Z,71.20
2019-03-26T14:03:55.935Z,71.30
2019-03-26T14:06:32.421Z,71.30
2019-03-26T14:09:07.446Z,71.40
2019-03-26T14:11:41.915Z,71.60
2019-03-26T14:14:16.721Z,71.90
2019-03-26T14:16:52.053Z,71.90
2019-03-26T14:19:27.177Z,72.10
2019-03-26T14:22:01.925Z,72.00
2019-03-26T14:24:37.347Z,72.00
2019-03-26T14:27:12.496Z,72.20
2019-03-26T14:29:48.590Z,72.10
2019-03-26T14:32:24.499Z,72.20
2019-03-26T14:35:00.787Z,72.50
2019-03-26T14:37:45.641Z,72.50
2019-03-26T14:40:12.464Z,72.40
2019-03-26T14:42:48.009Z,72.60
2019-03-26T14:45:23.189Z,72.80
2019-03-26T14:47:58.429Z,72.90
2019-03-26T14:50:33.199Z,73.20
2019-03-26T14:53:08.204Z,73.20
2019-03-26T14:55:43.967Z,73.30
2019-03-26T14:58:18.963Z,73.50
2019-03-26T15:00:54.543Z,73.50
2019-03-26T15:03:30.082Z,73.50
2019-03-26T15:06:04.654Z,73.70
2019-03-26T15:08:40.079Z,73.90
2019-03-26T15:11:15.359Z,74.00
2019-03-26T15:13:50.547Z,74.20
2019-03-26T15:16:25.721Z,74.40
2019-03-26T15:19:00.847Z,74.40
2019-03-26T15:21:35.672Z,74.50
2019-03-26T15:24:10.806Z,74.60
2019-03-26T15:26:46.339Z,74.60
2019-03-26T15:29:21.152Z,74.70
2019-03-26T15:31:56.088Z,74.80
2019-03-26T15:34:36.350Z,74.80
2019-03-26T15:37:08.262Z,75.00
2019-03-26T15:39:43.314Z,75.00
2019-03-26T15:42:19.045Z,75.10
2019-03-26T15:44:53.999Z,75.90
2019-03-26T15:47:29.240Z,75.30
2019-03-26T15:50:07.882Z,75.70
2019-03-26T15:52:42.980Z,75.60
2019-03-26T15:55:17.736Z,75.80
2019-03-26T15:57:59.694Z,75.90
2019-03-26T16:00:33.841Z,76.10
2019-03-26T16:03:09.292Z,76.90
2019-03-26T16:05:44.465Z,76.20
2019-03-26T16:08:19.459Z,76.30
2019-03-26T16:10:54.857Z,76.40
2019-03-26T16:13:29.935Z,76.40
2019-03-26T16:16:04.792Z,76.50
2019-03-26T16:18:39.899Z,76.60
2019-03-26T16:21:15.285Z,76.60
2019-03-26T16:23:51.062Z,76.70
2019-03-26T16:26:26.263Z,76.90
2019-03-26T16:29:01.165Z,77.00
2019-03-26T16:31:36.400Z,77.00
2019-03-26T16:34:11.539Z,77.00
2019-03-26T16:36:58.842Z,77.10
2019-03-26T16:39:23.472Z,77.30
2019-03-26T16:41:58.808Z,77.30
2019-03-26T16:44:33.974Z,77.40
2019-03-26T16:47:09.411Z,77.50
2019-03-26T16:49:44.359Z,77.50
2019-03-26T16:52:20.231Z,77.60
2019-03-26T16:54:55.047Z,77.70
2019-03-26T16:57:29.679Z,77.70
2019-03-26T17:00:05.234Z,77.70
2019-03-26T17:02:40.509Z,77.80
2019-03-26T17:05:15.206Z,77.80
2019-03-26T17:07:50.383Z,77.90
2019-03-26T17:10:25.179Z,77.90
2019-03-26T17:13:00.514Z,78.00
2019-03-26T17:15:35.844Z,78.80
2019-03-26T17:18:10.999Z,78.20
2019-03-26T17:20:46.036Z,78.20
2019-03-26T17:23:20.947Z,78.30
2019-03-26T17:25:56.239Z,78.40
2019-03-26T17:28:31.702Z,78.60
2019-03-26T17:31:06.384Z,78.70
2019-03-26T17:33:41.490Z,78.90
2019-03-26T17:36:16.792Z,79.00
2019-03-26T17:38:51.936Z,79.10
2019-03-26T17:41:27.692Z,79.10
2019-03-26T17:44:03.040Z,79.30
2019-03-26T17:46:38.133Z,79.30
2019-03-26T17:49:14.467Z,79.30
2019-03-26T17:51:49.823Z,79.30
2019-03-26T17:54:25.164Z,79.50
2019-03-26T17:57:00.544Z,79.60
2019-03-26T17:59:36.122Z,80.50
2019-03-26T18:02:11.839Z,79.50
2019-03-26T18:04:47.117Z,79.60
2019-03-26T18:07:22.397Z,79.60
2019-03-26T18:09:58.286Z,79.60
2019-03-26T18:12:33.863Z,79.70
2019-03-26T18:15:09.027Z,79.70
2019-03-26T18:17:44.240Z,79.80
2019-03-26T18:20:31.838Z,79.90
2019-03-26T18:22:55.219Z,79.80
2019-03-26T18:25:30.898Z,79.80
2019-03-26T18:28:06.233Z,79.80
2019-03-26T18:30:41.279Z,79.80
2019-03-26T18:33:16.724Z,80.00
2019-03-26T18:35:51.670Z,80.10
2019-03-26T18:38:26.720Z,80.00
2019-03-26T18:41:01.682Z,80.00
2019-03-26T18:43:36.786Z,80.00
2019-03-26T18:46:12.009Z,80.20
2019-03-26T18:48:47.542Z,80.10
2019-03-26T18:51:22.423Z,80.30
2019-03-26T18:53:57.863Z,80.30
2019-03-26T18:56:33.166Z,81.20
2019-03-26T18:59:08.324Z,80.20
2019-03-26T19:01:43.578Z,80.30
2019-03-26T19:04:34.079Z,80.40
2019-03-26T19:07:09.515Z,80.50
2019-03-26T19:09:44.467Z,81.50
2019-03-26T19:12:19.470Z,80.60
2019-03-26T19:14:54.662Z,81.00
2019-03-26T19:17:29.583Z,80.20
2019-03-26T19:20:04.262Z,80.90
2019-03-26T19:22:39.590Z,80.90
2019-03-26T19:25:14.764Z,81.00
2019-03-26T19:27:49.967Z,81.10
2019-03-26T19:30:25.308Z,81.10
2019-03-26T19:33:00.632Z,81.10
2019-03-26T19:35:35.890Z,81.20
2019-03-26T19:38:11.140Z,82.10
2019-03-26T19:40:46.189Z,81.10
2019-03-26T19:43:22.158Z,81.30
2019-03-26T19:45:57.244Z,81.30
2019-03-26T19:48:32.174Z,81.30
2019-03-26T19:51:08.423Z,81.40
2019-03-26T19:53:43.128Z,81.40
2019-03-26T19:56:18.213Z,80.80
2019-03-26T19:58:53.528Z,81.40
2019-03-26T20:01:28.707Z,81.40
2019-03-26T20:04:04.032Z,81.50
2019-03-26T20:06:39.013Z,81.50
2019-03-26T20:09:14.131Z,81.50
2019-03-26T20:11:49.061Z,81.50
2019-03-26T20:14:23.927Z,81.50
2019-03-26T20:16:59.424Z,81.50
2019-03-26T20:19:35.392Z,81.50
2019-03-26T20:22:09.886Z,81.60
2019-03-26T20:24:45.391Z,81.80
2019-03-26T20:27:21.060Z,81.70
2019-03-26T20:29:55.978Z,81.80
2019-03-26T20:32:31.287Z,81.90
2019-03-26T20:35:06.509Z,82.00
2019-03-26T20:37:41.196Z,82.00
2019-03-26T20:40:16.150Z,82.10
2019-03-26T20:42:51.609Z,82.10
2019-03-26T20:45:26.723Z,82.00
2019-03-26T20:48:02.078Z,82.40
2019-03-26T20:50:37.706Z,82.10
2019-03-26T20:53:12.580Z,82.30
2019-03-26T20:55:54.191Z,82.40
2019-03-26T20:58:24.621Z,82.40
2019-03-26T21:00:59.940Z,82.50
2019-03-26T21:03:35.176Z,82.40
2019-03-26T21:06:10.636Z,82.60
2019-03-26T21:08:46.371Z,82.70
2019-03-26T21:11:21.626Z,82.80
2019-03-26T21:13:57.106Z,82.70
2019-03-26T21:16:32.709Z,82.70
2019-03-26T21:19:07.635Z,82.80
2019-03-26T21:21:43.123Z,82.90
2019-03-26T21:24:18.020Z,82.90
2019-03-26T21:26:53.204Z,82.80
2019-03-26T21:29:28.112Z,82.90
2019-03-26T21:32:03.145Z,82.90
2019-03-26T21:34:38.493Z,83.00
2019-03-26T21:37:13.790Z,83.00
2019-03-26T21:39:49.430Z,83.00
2019-03-26T21:42:24.253Z,82.90
2019-03-26T21:44:59.742Z,83.00
2019-03-26T21:47:34.809Z,83.00
2019-03-26T21:50:10.473Z,83.10
2019-03-26T21:52:46.017Z,83.10
2019-03-26T21:55:21.124Z,83.20
2019-03-26T21:57:56.849Z,83.20
2019-03-26T22:00:31.702Z,83.20
2019-03-26T22:03:06.503Z,83.30
2019-03-26T22:05:41.839Z,83.30
2019-03-26T22:08:16.937Z,83.30
2019-03-26T22:10:52.163Z,83.40
2019-03-26T22:13:27.813Z,83.40
2019-03-26T22:16:02.976Z,83.40
2019-03-26T22:18:38.547Z,83.40
2019-03-26T22:21:14.963Z,83.50
2019-03-26T22:23:50.457Z,83.50
2019-03-26T22:26:25.152Z,83.70
2019-03-26T22:29:00.240Z,83.50
2019-03-26T22:31:35.263Z,83.70
2019-03-26T22:34:10.323Z,83.70
2019-03-26T22:36:45.821Z,83.90
2019-03-26T22:39:20.623Z,84.00
2019-03-26T22:41:55.574Z,84.10
2019-03-26T22:44:31.906Z,84.20
2019-03-26T22:47:07.278Z,84.20
2019-03-26T22:49:42.598Z,84.20
2019-03-26T22:52:17.454Z,84.20
2019-03-26T22:54:52.530Z,84.30
2019-03-26T22:57:27.975Z,84.40
2019-03-26T23:00:03.078Z,84.50
2019-03-26T23:02:39.047Z,84.50
2019-03-26T23:05:14.017Z,84.60
2019-03-26T23:07:49.075Z,84.70
2019-03-26T23:10:24.219Z,84.80
2019-03-26T23:12:59.883Z,85.00
2019-03-26T23:15:35.018Z,84.90
2019-03-26T23:18:10.275Z,84.90
2019-03-26T23:20:44.989Z,85.00
2019-03-26T23:23:19.923Z,85.00
2019-03-26T23:25:54.916Z,84.90
2019-03-26T23:28:30.472Z,85.00
2019-03-26T23:31:05.697Z,85.00
2019-03-26T23:33:40.787Z,85.00
2019-03-26T23:36:16.258Z,85.10
2019-03-26T23:38:51.227Z,85.00
2019-03-26T23:41:42.374Z,84.90
2019-03-26T23:44:25.629Z,84.90
2019-03-26T23:46:54.831Z,84.10
2019-03-26T23:49:29.936Z,84.70
2019-03-26T23:52:05.321Z,84.80
2019-03-26T23:54:40.716Z,85.00
2019-03-26T23:57:15.340Z,85.20
2019-03-26T23:59:50.470Z,85.10
